createdAt,value
2019-04-07T00:01:10.592Z,55.47
2019-04-07T00:03:38.112Z,55.13
2019-04-07T00:06:05.551Z,55.67
2019-04-07T00:08:32.980Z,57.43
2019-04-07T00:11:00.487Z,56.47
2019-04-07T00:13:28.202Z,52.50
2019-04-07T00:15:55.786Z,54.97
2019-04-07T00:18:24.203Z,63.83
2019-04-07T00:20:51.632Z,57.67
2019-04-07T00:23:19.032Z,55.43
2019-04-07T00:25:46.768Z,55.47
2019-04-07T00:28:14.378Z,56.10
2019-04-07T00:30:42.409Z,59.80
2019-04-07T00:33:10.117Z,60.63
2019-04-07T00:35:37.650Z,55.77
2019-04-07T00:38:05.137Z,59.13
2019-04-07T00:40:32.512Z,57.30
2019-04-07T00:42:59.953Z,59.47
2019-04-07T00:45:27.354Z,56.17
2019-04-07T00:47:54.797Z,56.00
2019-04-07T00:50:22.264Z,56.20
2019-04-07T00:52:50.203Z,52.80
2019-04-07T00:55:17.720Z,59.50
2019-04-07T00:57:45.631Z,55.67
2019-04-07T01:00:16.497Z,58.03
2019-04-07T01:02:44.038Z,63.73
2019-04-07T01:05:11.659Z,54.67
2019-04-07T01:07:41.026Z,58.10
2019-04-07T01:10:08.733Z,60.10
2019-04-07T01:12:36.941Z,57.57
2019-04-07T01:15:07.857Z,62.87
2019-04-07T01:17:35.367Z,57.13
2019-04-07T01:20:04.387Z,62.23
2019-04-07T01:22:31.922Z,61.90
2019-04-07T01:24:59.465Z,57.40
2019-04-07T01:27:27.072Z,64.73
2019-04-07T01:29:54.484Z,62.37
2019-04-07T01:32:22.465Z,55.30
2019-04-07T01:34:50.347Z,49.90
2019-04-07T01:37:17.953Z,50.93
2019-04-07T01:39:45.833Z,53.00
2019-04-07T01:42:22.921Z,56.30
2019-04-07T01:45:12.743Z,55.30
2019-04-07T01:47:55.192Z,59.37
2019-04-07T01:50:41.775Z,57.27
2019-04-07T01:53:25.416Z,56.90
2019-04-07T01:56:05.438Z,56.33
2019-04-07T01:58:56.116Z,67.27
2019-04-07T02:01:43.904Z,70.23
2019-04-07T02:04:29.417Z,71.87
2019-04-07T02:07:16.382Z,86.37
2019-04-07T02:10:02.542Z,83.80
2019-04-07T02:12:53.160Z,76.17
2019-04-07T02:15:35.878Z,68.13
2019-04-07T02:18:25.748Z,66.20
2019-04-07T02:21:03.417Z,58.50
2019-04-07T02:24:00.039Z,60.30
2019-04-07T02:26:36.975Z,59.97
2019-04-07T02:29:24.628Z,57.47
2019-04-07T02:32:05.462Z,56.23
2019-04-07T02:34:43.944Z,59.50
2019-04-07T02:37:31.331Z,62.73
2019-04-07T02:40:31.174Z,60.67
2019-04-07T02:43:31.058Z,59.07
2019-04-07T02:46:31.286Z,61.67
2019-04-07T02:49:21.157Z,56.90
2019-04-07T02:52:16.867Z,68.30
2019-04-07T02:55:04.503Z,59.67
2019-04-07T02:57:44.541Z,61.33
2019-04-07T03:00:44.483Z,62.03
2019-04-07T03:03:31.118Z,59.70
2019-04-07T03:06:37.475Z,54.90
2019-04-07T03:08:59.738Z,56.90
2019-04-07T03:11:56.414Z,61.20
2019-04-07T03:14:50.617Z,56.90
2019-04-07T03:17:52.674Z,58.40
2019-04-07T03:20:26.952Z,59.73
2019-04-07T03:23:14.712Z,58.07
2019-04-07T03:25:55.008Z,60.53
2019-04-07T03:28:35.220Z,57.57
2019-04-07T03:31:22.435Z,59.70
2019-04-07T03:34:14.515Z,61.17
2019-04-07T03:37:19.084Z,62.33
2019-04-07T03:39:49.845Z,57.70
2019-04-07T03:42:38.459Z,69.10
2019-04-07T03:45:28.677Z,66.33
2019-04-07T03:48:06.901Z,71.30
2019-04-07T03:50:40.919Z,58.30
2019-04-07T03:53:27.118Z,63.97
2019-04-07T03:56:17.062Z,62.23
2019-04-07T03:58:53.828Z,61.80
2019-04-07T04:01:41.459Z,61.63
2019-04-07T04:04:31.476Z,63.53
2019-04-07T04:07:26.590Z,64.17
2019-04-07T04:10:17.807Z,62.57
2019-04-07T04:13:05.151Z,57.80
2019-04-07T04:15:41.553Z,57.13
2019-04-07T04:18:09.587Z,55.67
2019-04-07T04:20:37.355Z,52.17
2019-04-07T04:23:05.838Z,57.63
2019-04-07T04:25:34.094Z,57.87
2019-04-07T04:28:01.700Z,68.40
2019-04-07T04:30:29.921Z,56.27
2019-04-07T04:32:57.477Z,57.23
2019-04-07T04:35:24.902Z,61.90
2019-04-07T04:37:53.925Z,64.27
2019-04-07T04:40:22.232Z,62.93
2019-04-07T04:42:50.417Z,63.87
2019-04-07T04:45:18.029Z,65.23
2019-04-07T04:47:46.340Z,62.33
2019-04-07T04:50:14.801Z,62.80
2019-04-07T04:52:42.807Z,61.23
2019-04-07T04:55:11.236Z,56.37
2019-04-07T04:57:38.828Z,62.83
2019-04-07T05:00:06.441Z,59.00
2019-04-07T05:02:33.873Z,58.87
2019-04-07T05:05:02.454Z,60.07
2019-04-07T05:07:30.190Z,58.73
2019-04-07T05:09:57.728Z,59.80
2019-04-07T05:12:25.217Z,58.13
2019-04-07T05:14:53.644Z,57.97
2019-04-07T05:17:21.092Z,64.30
2019-04-07T05:19:48.481Z,57.50
2019-04-07T05:22:16.708Z,60.03
2019-04-07T05:24:44.312Z,50.17
2019-04-07T05:27:11.694Z,46.10
2019-04-07T05:29:39.134Z,44.93
2019-04-07T05:32:06.882Z,39.13
2019-04-07T05:34:34.583Z,39.73
2019-04-07T05:37:02.194Z,40.37
2019-04-07T05:39:29.827Z,43.60
2019-04-07T05:41:57.200Z,42.20
2019-04-07T05:44:24.837Z,39.80
2019-04-07T05:46:52.824Z,37.93
2019-04-07T05:49:22.578Z,39.10
2019-04-07T05:51:50.111Z,32.47
2019-04-07T05:54:19.783Z,37.70
2019-04-07T05:56:47.013Z,36.20
2019-04-07T05:59:14.775Z,35.40
2019-04-07T06:01:43.053Z,36.70
2019-04-07T06:04:14.325Z,41.03
2019-04-07T06:06:41.763Z,36.90
2019-04-07T06:09:09.465Z,34.07
2019-04-07T06:11:38.911Z,39.53
2019-04-07T06:14:06.316Z,43.80
2019-04-07T06:16:34.364Z,41.13
2019-04-07T06:19:06.463Z,37.50
2019-04-07T06:21:31.266Z,40.00
2019-04-07T06:24:00.625Z,39.70
2019-04-07T06:26:28.105Z,40.00
2019-04-07T06:28:58.500Z,43.30
2019-04-07T06:31:26.305Z,44.93
2019-04-07T06:33:55.074Z,43.13
2019-04-07T06:36:25.461Z,46.87
2019-04-07T06:38:52.916Z,40.60
2019-04-07T06:41:21.762Z,40.53
2019-04-07T06:43:49.663Z,44.33
2019-04-07T06:46:39.301Z,44.23
2019-04-07T06:49:15.315Z,39.13
2019-04-07T06:52:03.599Z,41.83
2019-04-07T06:54:50.122Z,42.07
2019-04-07T06:57:37.731Z,43.07
2019-04-07T07:00:25.675Z,40.13
2019-04-07T07:03:11.686Z,44.73
2019-04-07T07:06:11.103Z,41.47
2019-04-07T07:08:46.799Z,42.60
2019-04-07T07:11:40.396Z,41.07
2019-04-07T07:14:30.342Z,40.27
2019-04-07T07:17:04.053Z,41.20
2019-04-07T07:19:41.206Z,40.77
2019-04-07T07:22:14.818Z,39.43
2019-04-07T07:24:41.721Z,37.80
2019-04-07T07:27:11.274Z,38.83
2019-04-07T07:29:38.715Z,37.77
2019-04-07T07:32:06.461Z,36.10
2019-04-07T07:34:35.856Z,33.80
2019-04-07T07:37:04.054Z,31.63
2019-04-07T07:39:31.614Z,31.27
2019-04-07T07:41:59.371Z,36.27
2019-04-07T07:44:27.734Z,35.50
2019-04-07T07:46:55.528Z,34.67
2019-04-07T07:49:22.946Z,31.63
2019-04-07T07:51:50.630Z,30.97
2019-04-07T07:54:18.278Z,31.37
2019-04-07T07:56:48.536Z,31.47
2019-04-07T07:59:15.142Z,31.17
2019-04-07T08:01:46.235Z,30.67
2019-04-07T08:04:12.006Z,28.47
2019-04-07T08:06:41.047Z,28.23
2019-04-07T08:09:13.738Z,28.43
2019-04-07T08:11:38.931Z,28.73
2019-04-07T08:14:06.732Z,28.73
2019-04-07T08:16:34.647Z,27.40
2019-04-07T08:19:03.873Z,28.80
2019-04-07T08:21:31.642Z,26.27
2019-04-07T08:23:59.100Z,27.07
2019-04-07T08:26:26.596Z,25.20
2019-04-07T08:28:54.751Z,26.53
2019-04-07T08:31:22.950Z,25.53
2019-04-07T08:33:51.599Z,26.47
2019-04-07T08:36:19.800Z,26.20
2019-04-07T08:38:47.721Z,24.87
2019-04-07T08:41:16.663Z,24.20
2019-04-07T08:43:44.247Z,23.87
2019-04-07T08:46:12.026Z,23.70
2019-04-07T08:48:40.182Z,23.53
2019-04-07T08:51:08.508Z,24.27
2019-04-07T08:53:36.097Z,25.03
2019-04-07T08:56:06.364Z,25.60
2019-04-07T08:58:36.893Z,24.60
2019-04-07T09:01:03.312Z,24.23
2019-04-07T09:03:31.450Z,25.33
2019-04-07T09:05:59.797Z,25.00
2019-04-07T09:08:27.335Z,24.13
2019-04-07T09:11:09.058Z,25.77
2019-04-07T09:13:37.197Z,25.00
2019-04-07T09:16:41.578Z,25.37
2019-04-07T09:19:27.265Z,25.73
2019-04-07T09:22:14.317Z,25.77
2019-04-07T09:25:10.887Z,25.13
2019-04-07T09:27:52.269Z,25.33
2019-04-07T09:31:00.289Z,25.17
2019-04-07T09:33:48.141Z,24.70
2019-04-07T09:36:51.111Z,22.73
2019-04-07T09:39:55.389Z,21.97
2019-04-07T09:42:42.052Z,21.60
2019-04-07T09:45:30.132Z,22.33
2019-04-07T09:48:19.167Z,22.03
2019-04-07T09:51:20.826Z,21.40
2019-04-07T09:54:11.019Z,20.13
2019-04-07T09:57:19.067Z,20.90
2019-04-07T09:59:55.687Z,21.47
2019-04-07T10:02:42.682Z,21.87
2019-04-07T10:05:30.986Z,20.97
2019-04-07T10:08:20.918Z,20.40
2019-04-07T10:11:19.780Z,21.80
2019-04-07T10:14:10.017Z,21.63
2019-04-07T10:16:53.032Z,22.13
2019-04-07T10:19:55.534Z,21.20
2019-04-07T10:22:46.164Z,21.70
2019-04-07T10:25:29.018Z,21.53
2019-04-07T10:28:07.214Z,22.17
2019-04-07T10:30:58.659Z,22.70
2019-04-07T10:33:46.089Z,20.97
2019-04-07T10:36:33.036Z,22.27
2019-04-07T10:39:39.160Z,27.93
2019-04-07T10:42:38.061Z,22.13
2019-04-07T10:45:26.184Z,22.40
2019-04-07T10:48:28.603Z,24.97
2019-04-07T10:51:10.519Z,23.53
2019-04-07T10:53:56.306Z,25.13
2019-04-07T10:56:48.374Z,23.80
2019-04-07T10:59:37.260Z,23.60
2019-04-07T11:02:13.467Z,23.80
2019-04-07T11:05:02.914Z,24.13
2019-04-07T11:07:43.847Z,23.43
2019-04-07T11:10:35.208Z,23.20
2019-04-07T11:13:49.994Z,22.43
2019-04-07T11:19:45.366Z,22.23
2019-04-07T11:22:44.188Z,22.17
2019-04-07T11:25:37.120Z,23.97
2019-04-07T11:28:39.007Z,23.87
2019-04-07T11:31:29.147Z,22.70
2019-04-07T11:34:22.718Z,21.00
2019-04-07T11:37:25.108Z,21.20
2019-04-07T11:40:24.881Z,19.47
2019-04-07T11:43:02.296Z,21.43
2019-04-07T11:45:53.243Z,22.50
2019-04-07T11:48:30.890Z,21.27
2019-04-07T11:54:41.468Z,20.33
2019-04-07T11:57:41.169Z,23.20
2019-04-07T12:01:12.814Z,23.20
2019-04-07T12:04:31.659Z,21.27
2019-04-07T12:07:30.533Z,21.53
2019-04-07T12:10:40.830Z,20.53
2019-04-07T12:13:34.884Z,20.63
2019-04-07T12:16:30.386Z,18.87
2019-04-07T12:19:56.840Z,24.23
2019-04-07T12:23:04.780Z,21.13
2019-04-07T12:26:05.916Z,21.63
2019-04-07T12:29:12.981Z,22.13
2019-04-07T12:32:04.003Z,20.90
2019-04-07T12:34:45.855Z,19.73
2019-04-07T12:37:30.591Z,19.23
2019-04-07T12:40:39.370Z,21.87
2019-04-07T12:43:07.333Z,19.50
2019-04-07T12:46:19.325Z,24.17
2019-04-07T12:49:16.408Z,17.63
2019-04-07T12:52:03.106Z,17.57
2019-04-07T12:55:19.289Z,19.00
2019-04-07T12:58:28.740Z,15.87
2019-04-07T13:01:19.713Z,16.97
2019-04-07T13:04:06.806Z,17.90
2019-04-07T13:07:01.331Z,20.20
2019-04-07T13:09:51.711Z,21.50
2019-04-07T13:12:46.634Z,24.87
2019-04-07T13:15:30.299Z,24.90
2019-04-07T13:18:19.372Z,22.47
2019-04-07T13:21:22.041Z,22.73
2019-04-07T13:24:50.908Z,25.07
2019-04-07T13:27:54.201Z,27.03
2019-04-07T13:30:41.517Z,27.50
2019-04-07T13:35:22.682Z,25.70
2019-04-07T13:40:21.756Z,28.23
2019-04-07T13:43:33.195Z,26.97
2019-04-07T13:46:43.314Z,25.27
2019-04-07T13:49:41.356Z,23.27
2019-04-07T13:52:41.524Z,22.70
2019-04-07T13:55:41.118Z,26.40
2019-04-07T14:03:00.235Z,23.63
2019-04-07T14:04:59.910Z,28.47
2019-04-07T14:08:52.996Z,20.53
2019-04-07T14:12:10.054Z,27.80
2019-04-07T14:18:17.442Z,27.47
2019-04-07T14:21:14.807Z,25.43
2019-04-07T14:24:14.414Z,27.30
2019-04-07T14:26:51.937Z,27.77
2019-04-07T14:29:46.041Z,27.27
2019-04-07T14:32:27.353Z,25.90
2019-04-07T14:35:18.418Z,26.40
2019-04-07T14:41:29.938Z,25.37
2019-04-07T14:44:16.052Z,23.50
2019-04-07T14:47:12.830Z,23.07
2019-04-07T14:50:50.425Z,23.57
2019-04-07T14:53:43.145Z,23.40
2019-04-07T14:56:50.833Z,21.70
2019-04-07T14:59:38.420Z,24.67
2019-04-07T15:02:10.559Z,25.40
2019-04-07T15:04:47.735Z,25.20
2019-04-07T15:07:34.562Z,24.80
2019-04-07T15:10:12.385Z,22.70
2019-04-07T15:12:55.625Z,22.93
2019-04-07T15:15:23.688Z,22.23
2019-04-07T15:18:16.499Z,22.70
2019-04-07T15:20:47.384Z,22.03
2019-04-07T15:23:31.909Z,22.27
2019-04-07T15:25:59.069Z,21.67
2019-04-07T15:28:31.422Z,21.63
2019-04-07T15:31:06.081Z,21.73
2019-04-07T15:33:39.566Z,22.77
2019-04-07T15:36:10.783Z,23.53
2019-04-07T15:38:41.435Z,23.53
2019-04-07T15:41:19.079Z,22.80
2019-04-07T15:43:48.880Z,24.77
2019-04-07T15:46:19.552Z,24.00
2019-04-07T15:49:07.895Z,24.43
2019-04-07T15:51:37.717Z,26.10
2019-04-07T15:56:59.960Z,22.47
2019-04-07T15:59:34.168Z,22.77
2019-04-07T16:02:13.480Z,20.77
2019-04-07T16:04:49.391Z,23.97
2019-04-07T16:07:59.292Z,22.00
2019-04-07T16:10:23.921Z,21.47
2019-04-07T16:12:59.419Z,21.83
2019-04-07T16:15:34.064Z,21.37
2019-04-07T16:18:04.771Z,20.90
2019-04-07T16:20:37.254Z,22.93
2019-04-07T16:23:05.883Z,21.70
2019-04-07T16:25:40.217Z,21.57
2019-04-07T16:28:11.378Z,24.17
2019-04-07T16:30:39.449Z,22.80
2019-04-07T16:33:07.739Z,21.47
2019-04-07T16:35:36.523Z,23.07
2019-04-07T16:38:05.273Z,22.30
2019-04-07T16:40:33.905Z,20.57
2019-04-07T16:43:11.531Z,24.03
2019-04-07T16:45:33.953Z,21.30
2019-04-07T16:48:04.504Z,23.43
2019-04-07T16:50:31.963Z,24.83
2019-04-07T16:53:06.552Z,25.87
2019-04-07T16:55:39.963Z,25.17
2019-04-07T16:58:17.757Z,23.23
2019-04-07T17:00:49.696Z,26.70
2019-04-07T17:03:24.053Z,22.17
2019-04-07T17:05:57.528Z,25.87
2019-04-07T17:08:24.970Z,23.40
2019-04-07T17:10:54.477Z,23.50
2019-04-07T17:13:34.504Z,23.57
2019-04-07T17:15:54.079Z,23.67
2019-04-07T17:18:36.856Z,23.77
2019-04-07T17:21:10.317Z,25.03
2019-04-07T17:23:39.614Z,23.07
2019-04-07T17:26:11.640Z,21.67
2019-04-07T17:28:44.434Z,22.43
2019-04-07T17:31:11.871Z,24.73
2019-04-07T17:33:39.942Z,23.97
2019-04-07T17:36:07.979Z,25.90
2019-04-07T17:38:51.942Z,26.00
2019-04-07T17:41:20.184Z,25.03
2019-04-07T17:44:22.401Z,25.37
2019-04-07T17:47:00.568Z,24.00
2019-04-07T17:49:59.227Z,25.60
2019-04-07T17:53:14.028Z,27.07
2019-04-07T17:55:58.958Z,23.30
2019-04-07T17:58:44.221Z,24.23
2019-04-07T18:01:36.047Z,24.30
2019-04-07T18:04:29.227Z,28.73
2019-04-07T18:07:15.083Z,25.67
2019-04-07T18:10:06.907Z,27.97
2019-04-07T18:12:51.558Z,27.07
2019-04-07T18:15:42.073Z,26.00
2019-04-07T18:18:28.263Z,25.00
2019-04-07T18:21:16.863Z,26.13
2019-04-07T18:24:06.445Z,27.50
2019-04-07T18:27:01.632Z,29.20
2019-04-07T18:29:46.028Z,26.20
2019-04-07T18:32:27.762Z,30.87
2019-04-07T18:35:23.882Z,25.20
2019-04-07T18:41:16.712Z,29.20
2019-04-07T18:44:06.956Z,24.57
2019-04-07T18:46:50.160Z,26.00
2019-04-07T18:49:35.493Z,25.63
2019-04-07T18:52:27.689Z,26.40
2019-04-07T18:55:13.978Z,26.27
2019-04-07T18:57:50.864Z,27.67
2019-04-07T19:00:39.215Z,29.47
2019-04-07T19:03:29.946Z,28.17
2019-04-07T19:06:20.397Z,29.13
2019-04-07T19:09:10.101Z,30.40
2019-04-07T19:12:07.560Z,31.93
2019-04-07T19:14:47.283Z,32.90
2019-04-07T19:17:34.904Z,28.67
2019-04-07T19:20:22.880Z,30.13
2019-04-07T19:23:16.442Z,27.43
2019-04-07T19:26:16.423Z,27.33
2019-04-07T19:28:56.329Z,28.83
2019-04-07T19:31:39.748Z,29.50
2019-04-07T19:34:43.178Z,27.50
2019-04-07T19:37:34.717Z,33.47
2019-04-07T19:40:10.067Z,28.33
2019-04-07T19:43:05.826Z,28.00
2019-04-07T19:45:55.265Z,26.80
2019-04-07T19:48:57.707Z,30.73
2019-04-07T19:52:03.287Z,33.07
2019-04-07T19:55:01.595Z,28.23
2019-04-07T19:57:50.992Z,27.97
2019-04-07T20:00:37.240Z,29.83
2019-04-07T20:03:24.177Z,31.40
2019-04-07T20:06:12.889Z,31.33
2019-04-07T20:08:57.854Z,30.57
2019-04-07T20:11:48.272Z,33.77
2019-04-07T20:14:45.108Z,33.27
2019-04-07T20:17:21.070Z,32.93
2019-04-07T20:20:04.215Z,37.00
2019-04-07T20:22:44.508Z,34.17
2019-04-07T20:25:25.157Z,35.63
2019-04-07T20:28:09.758Z,37.90
2019-04-07T20:30:48.576Z,36.20
2019-04-07T20:33:38.057Z,34.97
2019-04-07T20:36:40.778Z,36.57
2019-04-07T20:39:21.680Z,36.37
2019-04-07T20:42:18.008Z,39.20
2019-04-07T20:45:03.436Z,40.13
2019-04-07T20:47:34.983Z,38.17
2019-04-07T20:50:14.286Z,37.50
2019-04-07T20:52:49.198Z,40.07
2019-04-07T20:55:37.445Z,41.67
2019-04-07T20:58:41.621Z,42.93
2019-04-07T21:01:21.204Z,38.57
2019-04-07T21:04:12.863Z,42.17
2019-04-07T21:07:05.971Z,37.33
2019-04-07T21:09:51.673Z,35.10
2019-04-07T21:12:45.451Z,38.67
2019-04-07T21:15:43.167Z,41.80
2019-04-07T21:18:24.033Z,38.37
2019-04-07T21:21:02.732Z,39.07
2019-04-07T21:23:49.816Z,40.37
2019-04-07T21:26:37.151Z,38.10
2019-04-07T21:29:14.878Z,39.40
2019-04-07T21:32:01.757Z,39.53
2019-04-07T21:34:44.982Z,39.13
2019-04-07T21:37:26.149Z,38.50
2019-04-07T21:40:14.356Z,41.37
2019-04-07T21:43:00.516Z,39.70
2019-04-07T21:45:50.404Z,40.33
2019-04-07T21:48:47.467Z,38.67
2019-04-07T21:51:41.034Z,39.87
2019-04-07T21:54:16.015Z,43.83
2019-04-07T21:57:02.332Z,41.87
2019-04-07T21:59:36.306Z,42.47
2019-04-07T22:02:15.608Z,38.87
2019-04-07T22:05:07.579Z,39.40
2019-04-07T22:07:43.985Z,45.37
2019-04-07T22:10:13.680Z,42.20
2019-04-07T22:12:42.326Z,48.97
2019-04-07T22:15:13.968Z,42.23
2019-04-07T22:17:41.001Z,48.40
2019-04-07T22:20:09.046Z,42.20
2019-04-07T22:22:37.612Z,45.97
2019-04-07T22:25:07.110Z,40.90
2019-04-07T22:27:35.443Z,49.37
2019-04-07T22:30:06.572Z,43.73
2019-04-07T22:32:35.285Z,44.87
2019-04-07T22:35:06.575Z,42.87
2019-04-07T22:37:34.518Z,45.43
2019-04-07T22:40:03.454Z,46.20
2019-04-07T22:42:31.266Z,43.77
2019-04-07T22:44:59.862Z,42.20
2019-04-07T22:47:27.938Z,45.60
2019-04-07T22:49:56.888Z,43.23
2019-04-07T22:52:24.782Z,43.17
2019-04-07T22:54:52.621Z,47.03
2019-04-07T22:57:20.223Z,45.67
2019-04-07T22:59:48.306Z,43.80
2019-04-07T23:02:16.365Z,46.90
2019-04-07T23:04:45.243Z,48.60
2019-04-07T23:07:13.792Z,45.37
2019-04-07T23:09:41.814Z,46.70
2019-04-07T23:12:09.439Z,48.73
2019-04-07T23:14:37.941Z,46.70
2019-04-07T23:17:07.899Z,56.60
2019-04-07T23:19:35.658Z,48.43
2019-04-07T23:22:03.638Z,46.53
2019-04-07T23:24:31.227Z,47.10
2019-04-07T23:26:58.921Z,50.43
2019-04-07T23:29:26.697Z,44.87
2019-04-07T23:31:55.565Z,43.70
2019-04-07T23:34:23.892Z,45.40
2019-04-07T23:36:52.090Z,42.83
2019-04-07T23:39:20.015Z,45.53
2019-04-07T23:41:47.903Z,48.17
2019-04-07T23:44:16.087Z,47.30
2019-04-07T23:46:44.016Z,45.43
2019-04-07T23:49:11.967Z,48.20
2019-04-07T23:51:39.520Z,41.50
2019-04-07T23:54:14.318Z,42.50
2019-04-07T23:56:43.727Z,42.50
2019-04-07T23:59:11.549Z,43.80
